Time;durP1;ratioP1;P1;durP2;ratioP2;P2;SDS_P1;SDS_P2;PMS_P1;PMS_P2;Temp;Humidity;BMP_temperature;BMP_pressure;BME280_temperature;BME280_humidity;BME280_pressure;Samples;Min_cycle;Max_cycle;Signal;HPM_P1;HPM_P2
2021/08/29 00:00:31;;;;;;;;;;;;;;;12.75;92.79;97839.78;1739969;82;20181;-73
2021/08/29 00:02:58;;;;;;;;;;;;;;;12.79;91.41;97844.05;1739714;82;20442;-78
2021/08/29 00:05:24;;;;;;;;;;;;;;;12.79;91.61;97844.05;1739971;82;21250;-77
2021/08/29 00:07:50;;;;;;;;;;;;;;;12.79;91.01;97844.05;1739767;82;20181;-73
2021/08/29 00:10:15;;;;;;;;;;;;;;;12.73;91.77;97844.69;1739942;82;20252;-77
2021/08/29 00:12:42;;;;;;;;;;;;;;;12.74;91.28;97843.61;1739741;82;20142;-77
2021/08/29 00:15:08;;;;;;;;;;;;;;;12.72;90.67;97849.87;1739800;82;20147;-73
2021/08/29 00:17:33;;;;;;;;;;;;;;;12.73;90.08;97847.41;1739870;82;21129;-77
2021/08/29 00:19:59;;;;;;;;;;;;;;;12.66;90.32;97843.73;1739646;82;20489;-74
2021/08/29 00:22:25;;;;;;;;;;;;;;;12.60;90.37;97851.70;1736995;82;20264;-73
2021/08/29 00:24:51;;;;;;;;;;;;;;;12.58;91.37;97847.12;1721641;82;20185;-73
2021/08/29 00:27:16;;;;;;;;;;;;;;;12.57;91.38;97840.63;1721619;83;20165;-74
2021/08/29 00:29:42;;;;;;;;;;;;;;;12.57;92.52;97840.63;1721627;83;21090;-78
2021/08/29 00:32:08;;;;;;;;;;;;;;;12.60;92.53;97835.95;1721631;83;20169;-73
2021/08/29 00:34:34;;;;;;;;;;;;;;;12.57;94.08;97834.64;1721639;83;20221;-73
2021/08/29 00:36:59;;;;;;;;;;;;;;;12.60;92.36;97838.11;1721563;83;20170;-77
2021/08/29 00:39:25;;;;;;;;;;;;;;;12.56;94.23;97834.91;1721574;83;20201;-73
2021/08/29 00:41:51;;;;;;;;;;;;;;;12.54;92.25;97833.86;1721643;82;21159;-73
2021/08/29 00:44:18;;;;;;;;;;;;;;;12.55;91.59;97831.39;1721540;82;20213;-78
2021/08/29 00:46:45;;;;;;;;;;;;;;;12.56;91.04;97826.23;1721613;83;20187;-77
2021/08/29 00:49:14;;;;;;;;;;;;;;;12.55;93.43;97829.23;1721573;83;20139;-73
2021/08/29 00:51:40;;;;;;;;;;;;;;;12.53;93.54;97827.36;1721647;83;20140;-74
2021/08/29 00:54:06;;;;;;;;;;;;;;;12.55;93.05;97823.79;1721555;82;21043;-74
2021/08/29 00:56:31;;;;;;;;;;;;;;;12.59;91.80;97820.75;1721587;82;20201;-73
2021/08/29 00:58:57;;;;;;;;;;;;;;;12.64;90.78;97826.08;1721736;82;20205;-77
2021/08/29 01:01:25;;;;;;;;;;;;;;;12.62;90.37;97822.31;1721527;82;20153;-77
2021/08/29 01:03:53;;;;;;;;;;;;;;;12.63;90.24;97819.84;1721527;82;20151;-77
2021/08/29 01:06:29;;;;;;;;;;;;;;;12.61;90.13;97822.05;1721629;83;21112;-74
2021/08/29 01:09:03;;;;;;;;;;;;;;;12.57;90.21;97822.97;1721718;82;20135;-74
2021/08/29 01:11:28;;;;;;;;;;;;;;;12.55;92.29;97821.87;1721663;83;20168;-77
2021/08/29 01:13:59;;;;;;;;;;;;;;;12.54;92.94;97808.03;1721658;82;20154;-73
2021/08/29 01:16:25;;;;;;;;;;;;;;;12.56;92.06;97813.17;1721784;83;20135;-77
2021/08/29 01:18:52;;;;;;;;;;;;;;;12.60;92.73;97812.84;1709480;83;21162;-73
2021/08/29 01:21:26;;;;;;;;;;;;;;;12.59;93.36;97813.40;1721675;82;20588;-73
2021/08/29 01:24:00;;;;;;;;;;;;;;;12.61;92.35;97813.09;1733150;82;20159;-77
2021/08/29 01:26:29;;;;;;;;;;;;;;;12.59;92.75;97811.23;1739953;82;20160;-77
2021/08/29 01:28:58;;;;;;;;;;;;;;;12.59;92.82;97809.33;1705335;83;20164;-78
2021/08/29 01:31:27;;;;;;;;;;;;;;;12.59;92.57;97803.89;1709124;83;20867;-77
2021/08/29 01:33:53;;;;;;;;;;;;;;;12.58;93.00;97801.47;1709102;83;20159;-74
2021/08/29 01:36:19;;;;;;;;;;;;;;;12.58;93.02;97809.08;1709178;83;20213;-78
2021/08/29 01:38:45;;;;;;;;;;;;;;;12.56;94.33;97811.28;1709067;83;20166;-73
2021/08/29 01:41:16;;;;;;;;;;;;;;;12.53;94.11;97812.41;1709192;83;20152;-73
2021/08/29 01:43:42;;;;;;;;;;;;;;;12.54;93.21;97814.03;1698811;84;22007;-74
2021/08/29 01:46:08;;;;;;;;;;;;;;;12.55;91.95;97812.92;1709092;84;20221;-77
2021/08/29 01:48:35;;;;;;;;;;;;;;;12.51;92.26;97804.56;1708892;83;20190;-73
2021/08/29 01:51:02;;;;;;;;;;;;;;;12.51;91.26;97801.84;1709125;83;20140;-78
2021/08/29 01:53:27;;;;;;;;;;;;;;;12.51;92.19;97798.33;1709055;83;20117;-78
2021/08/29 01:55:53;;;;;;;;;;;;;;;12.55;91.74;97796.61;1709275;83;21096;-73
2021/08/29 01:58:19;;;;;;;;;;;;;;;12.61;91.81;97793.52;1708846;83;20194;-73
2021/08/29 02:00:49;;;;;;;;;;;;;;;12.68;91.46;97787.14;1708967;83;20214;-74
2021/08/29 02:03:15;;;;;;;;;;;;;;;12.73;91.21;97780.80;1708884;84;20172;-78
2021/08/29 02:05:41;;;;;;;;;;;;;;;12.76;91.68;97786.21;1709282;83;20139;-78
2021/08/29 02:08:06;;;;;;;;;;;;;;;12.73;93.42;97778.08;1708963;83;21061;-73
2021/08/29 02:10:32;;;;;;;;;;;;;;;12.69;93.87;97785.23;1709215;83;20174;-78
2021/08/29 02:13:01;;;;;;;;;;;;;;;12.69;94.35;97781.16;1709082;83;20174;-78
2021/08/29 02:15:29;;;;;;;;;;;;;;;12.73;93.67;97784.88;1709122;83;20129;-78
2021/08/29 02:17:54;;;;;;;;;;;;;;;12.74;93.03;97781.63;1709081;83;20407;-78
2021/08/29 02:20:22;;;;;;;;;;;;;;;12.68;92.88;97784.98;1709182;83;21069;-73
2021/08/29 02:22:48;;;;;;;;;;;;;;;12.64;92.86;97781.23;1709329;83;20428;-78
2021/08/29 02:25:14;;;;;;;;;;;;;;;12.65;92.86;97783.67;1702973;84;20465;-73
2021/08/29 02:27:40;;;;;;;;;;;;;;;12.64;91.42;97781.23;1713577;84;20166;-73
2021/08/29 02:30:07;;;;;;;;;;;;;;;12.59;93.14;97791.66;1703258;84;20143;-73
2021/08/29 02:32:35;;;;;;;;;;;;;;;12.57;93.66;97791.70;1713574;84;20549;-78
2021/08/29 02:35:01;;;;;;;;;;;;;;;12.59;94.90;97789.49;1713417;84;20135;-78
2021/08/29 02:37:27;;;;;;;;;;;;;;;12.64;94.58;97788.03;1703583;84;20261;-77
2021/08/29 02:39:55;;;;;;;;;;;;;;;12.63;91.93;97794.02;1713434;84;20233;-73
2021/08/29 02:42:21;;;;;;;;;;;;;;;12.59;91.63;97795.73;1713708;83;20164;-73
2021/08/29 02:44:46;;;;;;;;;;;;;;;12.57;91.77;97796.59;1713598;83;21154;-77
2021/08/29 02:47:13;;;;;;;;;;;;;;;12.63;91.87;97798.09;1713500;84;20252;-73
2021/08/29 02:49:39;;;;;;;;;;;;;;;12.72;91.72;97799.58;1713571;84;20144;-78
2021/08/29 02:52:05;;;;;;;;;;;;;;;12.78;91.10;97804.38;1713707;83;20431;-73
2021/08/29 05:22:38;;;;;;;;;;;;;;;12.74;95.42;97755.80;1709128;84;20412;-78
2021/08/29 05:25:05;;;;;;;;;;;;;;;12.84;95.00;97763.22;1708868;83;20438;-73
2021/08/29 05:27:30;;;;;;;;;;;;;;;12.87;94.89;97758.52;1709242;83;21122;-78
2021/08/29 05:29:56;;;;;;;;;;;;;;;12.95;94.49;97769.27;1708949;83;20261;-78
2021/08/29 05:32:22;;;;;;;;;;;;;;;13.01;94.40;97771.34;1709181;83;20698;-78
2021/08/29 05:34:47;;;;;;;;;;;;;;;13.09;93.76;97776.89;1708855;83;20155;-74
2021/08/29 05:37:13;;;;;;;;;;;;;;;13.11;93.53;97770.58;1709181;83;20179;-78
2021/08/29 05:39:39;;;;;;;;;;;;;;;13.12;93.64;97778.99;1708953;83;21012;-73
2021/08/29 05:42:05;;;;;;;;;;;;;;;13.18;93.06;97779.16;1708947;83;20174;-73
2021/08/29 05:44:31;;;;;;;;;;;;;;;13.25;93.07;97782.31;1708906;83;20683;-78
2021/08/29 05:46:56;;;;;;;;;;;;;;;13.22;92.52;97780.18;1709165;83;20538;-78
2021/08/29 05:49:22;;;;;;;;;;;;;;;13.30;92.33;97782.75;1708931;83;20210;-74
2021/08/29 05:51:48;;;;;;;;;;;;;;;13.33;92.11;97779.97;1709292;83;21020;-78
2021/08/29 05:54:14;;;;;;;;;;;;;;;13.40;92.16;97773.02;1708876;83;20234;-73
2021/08/29 05:56:40;;;;;;;;;;;;;;;13.50;91.97;97774.72;1709289;84;20143;-73
2021/08/29 05:59:06;;;;;;;;;;;;;;;13.55;92.19;97777.34;1708920;83;20147;-73
2021/08/29 06:01:31;;;;;;;;;;;;;;;13.64;92.17;97773.34;1709253;83;20174;-78
2021/08/29 06:03:57;;;;;;;;;;;;;;;13.67;92.08;97774.92;1709057;83;21992;-78
2021/08/29 06:06:23;;;;;;;;;;;;;;;13.73;91.92;97771.52;1709166;83;20165;-78
2021/08/29 06:08:49;;;;;;;;;;;;;;;13.72;90.86;97773.43;1709129;83;20696;-78
2021/08/29 06:11:14;;;;;;;;;;;;;;;13.66;90.85;97771.11;1709238;83;20210;-77
2021/08/29 06:13:40;;;;;;;;;;;;;;;13.64;90.51;97767.90;1709025;83;20206;-73
2021/08/29 06:16:06;;;;;;;;;;;;;;;13.65;90.42;97759.98;1709133;84;21789;-74
2021/08/29 06:18:31;;;;;;;;;;;;;;;13.70;90.52;97761.24;1708992;83;20162;-73
2021/08/29 06:20:57;;;;;;;;;;;;;;;13.77;90.50;97767.08;1709299;83;20178;-78
2021/08/29 06:23:23;;;;;;;;;;;;;;;13.84;90.37;97768.80;1709027;83;20206;-78
2021/08/29 06:25:49;;;;;;;;;;;;;;;13.92;90.17;97769.44;1709028;83;20150;-73
2021/08/29 06:28:14;;;;;;;;;;;;;;;14.00;90.24;97768.70;1709109;83;21116;-78
2021/08/29 06:30:40;;;;;;;;;;;;;;;13.96;89.36;97771.01;1709168;83;20166;-73
2021/08/29 06:33:06;;;;;;;;;;;;;;;13.90;89.57;97769.50;1709164;83;20186;-78
2021/08/29 06:35:32;;;;;;;;;;;;;;;13.90;89.60;97767.58;1709222;83;20174;-73
2021/08/29 06:37:57;;;;;;;;;;;;;;;13.86;88.93;97770.69;1709205;83;20190;-78
2021/08/29 06:40:23;;;;;;;;;;;;;;;13.88;89.65;97764.92;1708904;83;21227;-74
2021/08/29 06:42:49;;;;;;;;;;;;;;;13.99;89.83;97768.46;1709132;83;20273;-73
2021/08/29 06:45:14;;;;;;;;;;;;;;;14.13;89.93;97762.98;1709089;83;20186;-76
2021/08/29 06:47:40;;;;;;;;;;;;;;;14.20;89.04;97758.47;1709327;83;20238;-78
2021/08/29 06:50:06;;;;;;;;;;;;;;;14.21;88.64;97767.69;1708874;83;20242;-74
2021/08/29 06:52:32;;;;;;;;;;;;;;;14.23;87.46;97757.28;1699067;84;21064;-78
2021/08/29 06:54:58;;;;;;;;;;;;;;;14.38;88.39;97755.55;1708877;83;20217;-73
2021/08/29 06:57:25;;;;;;;;;;;;;;;14.57;88.79;97755.94;1709119;83;20210;-73
2021/08/29 06:59:51;;;;;;;;;;;;;;;14.72;88.50;97761.00;1708943;83;20136;-74
2021/08/29 07:02:17;;;;;;;;;;;;;;;14.76;87.07;97755.15;1709204;83;20148;-78
2021/08/29 07:04:43;;;;;;;;;;;;;;;14.77;86.55;97755.39;1708974;83;20505;-78
2021/08/29 07:07:09;;;;;;;;;;;;;;;14.82;86.52;97753.91;1709026;84;20241;-78
2021/08/29 07:09:38;;;;;;;;;;;;;;;14.90;86.83;97756.44;1708947;83;20269;-73
2021/08/29 07:12:05;;;;;;;;;;;;;;;14.83;85.74;97746.53;1709333;83;20129;-78
2021/08/29 07:14:31;;;;;;;;;;;;;;;15.01;86.41;97751.50;1709127;83;20160;-74
2021/08/29 07:16:57;;;;;;;;;;;;;;;15.04;85.90;97750.33;1709382;84;21081;-78
2021/08/29 07:19:22;;;;;;;;;;;;;;;15.03;85.95;97751.42;1709094;83;20209;-78
2021/08/29 07:21:48;;;;;;;;;;;;;;;15.16;86.50;97750.52;1709253;83;20737;-78
2021/08/29 07:24:14;;;;;;;;;;;;;;;15.30;85.84;97742.23;1709018;82;20142;-73
2021/08/29 07:26:40;;;;;;;;;;;;;;;15.46;86.31;97742.00;1709068;83;20150;-74
2021/08/29 07:29:05;;;;;;;;;;;;;;;15.60;84.56;97738.34;1709068;83;21835;-78
2021/08/29 07:31:31;;;;;;;;;;;;;;;15.74;84.32;97739.05;1709216;83;20178;-78
2021/08/29 07:33:57;;;;;;;;;;;;;;;15.89;85.10;97736.38;1709156;83;20189;-74
2021/08/29 07:36:23;;;;;;;;;;;;;;;16.01;83.41;97736.56;1709400;83;20191;-74
2021/08/29 07:38:48;;;;;;;;;;;;;;;16.28;83.40;97733.48;1709230;83;20155;-78
2021/08/29 07:41:14;;;;;;;;;;;;;;;16.32;79.51;97729.00;1709135;83;21128;-74
2021/08/29 07:43:40;;;;;;;;;;;;;;;16.57;82.02;97725.14;1709237;83;20202;-78
2021/08/29 07:46:06;;;;;;;;;;;;;;;16.50;78.87;97732.50;1709352;83;20221;-74
2021/08/29 07:48:32;;;;;;;;;;;;;;;16.58;79.91;97728.95;1709137;83;20141;-78
2021/08/29 07:50:57;;;;;;;;;;;;;;;16.64;80.71;97730.36;1709399;83;20151;-74
2021/08/29 07:53:23;;;;;;;;;;;;;;;16.76;81.20;97730.30;1709366;83;21068;-78
2021/08/29 07:55:49;;;;;;;;;;;;;;;16.80;80.30;97725.76;1709294;83;20221;-74
2021/08/29 07:58:15;;;;;;;;;;;;;;;16.77;79.16;97731.89;1709345;83;20210;-73
2021/08/29 08:00:40;;;;;;;;;;;;;;;16.71;77.61;97729.09;1709202;83;20174;-74
2021/08/29 08:03:06;;;;;;;;;;;;;;;16.58;75.88;97725.41;1709311;83;20190;-76
2021/08/29 08:05:32;;;;;;;;;;;;;;;16.71;79.18;97726.36;1709023;84;20742;-78
2021/08/29 08:07:59;;;;;;;;;;;;;;;16.78;79.20;97733.50;1709278;83;20253;-78
2021/08/29 08:10:26;;;;;;;;;;;;;;;16.78;79.73;97730.77;1708948;83;20163;-78
2021/08/29 08:12:52;;;;;;;;;;;;;;;16.57;77.57;97738.81;1709297;83;20587;-78
2021/08/29 08:15:18;;;;;;;;;;;;;;;16.49;77.60;97746.47;1698878;84;20200;-79
2021/08/29 08:17:43;;;;;;;;;;;;;;;16.17;74.90;97742.36;1709470;84;21074;-74
2021/08/29 08:20:10;;;;;;;;;;;;;;;16.13;75.48;97746.84;1708896;83;20178;-74
2021/08/29 08:22:36;;;;;;;;;;;;;;;16.05;77.10;97751.98;1709229;84;20158;-74
2021/08/29 08:25:02;;;;;;;;;;;;;;;15.80;76.99;97750.04;1708865;83;20162;-78
2021/08/29 08:27:28;;;;;;;;;;;;;;;15.57;77.65;97752.64;1709096;83;20491;-79
2021/08/29 08:29:54;;;;;;;;;;;;;;;15.44;79.34;97752.44;1709088;83;21136;-74
2021/08/29 08:32:20;;;;;;;;;;;;;;;15.32;80.25;97757.72;1709251;83;20209;-79
2021/08/29 08:34:45;;;;;;;;;;;;;;;15.08;81.23;97757.31;1709036;83;20234;-78
2021/08/29 08:37:11;;;;;;;;;;;;;;;15.04;82.23;97763.13;1709325;83;20175;-73
2021/08/29 08:39:37;;;;;;;;;;;;;;;14.95;83.24;97761.20;1709045;83;20147;-73
2021/08/29 08:42:03;;;;;;;;;;;;;;;14.95;83.12;97767.19;1709017;84;21195;-73
2021/08/29 08:44:29;;;;;;;;;;;;;;;15.00;82.68;97764.90;1698877;84;20131;-78
2021/08/29 08:46:55;;;;;;;;;;;;;;;15.06;82.98;97766.38;1709326;83;20222;-78
2021/08/29 08:49:21;;;;;;;;;;;;;;;15.07;82.09;97764.69;1709069;83;20230;-78
2021/08/29 08:51:46;;;;;;;;;;;;;;;15.05;81.63;97764.77;1709260;83;20210;-79
2021/08/29 08:54:16;;;;;;;;;;;;;;;15.04;81.75;97757.14;1709157;83;21060;-74
2021/08/29 08:56:42;;;;;;;;;;;;;;;14.93;81.89;97755.23;1709242;83;20164;-78
2021/08/29 08:59:07;;;;;;;;;;;;;;;14.81;82.17;97756.95;1709093;83;20213;-73
2021/08/29 09:01:33;;;;;;;;;;;;;;;14.78;82.74;97762.45;1709038;83;20170;-73
2021/08/29 09:03:59;;;;;;;;;;;;;;;14.75;82.73;97766.38;1709118;84;20147;-78
2021/08/29 09:06:25;;;;;;;;;;;;;;;14.75;83.46;97769.91;1709324;83;21148;-74
2021/08/29 09:08:50;;;;;;;;;;;;;;;14.81;83.41;97763.77;1708846;83;20178;-78
2021/08/29 09:11:16;;;;;;;;;;;;;;;14.87;82.96;97761.16;1709320;83;20193;-78
2021/08/29 09:13:53;;;;;;;;;;;;;;;14.89;83.36;97767.10;1709051;83;20139;-78
2021/08/29 09:16:20;;;;;;;;;;;;;;;14.85;83.29;97758.72;1709207;83;20272;-74
2021/08/29 09:18:48;;;;;;;;;;;;;;;14.95;83.65;97755.75;1709019;84;21011;-74
2021/08/29 09:21:29;;;;;;;;;;;;;;;15.05;83.09;97752.49;1709160;84;20175;-78
2021/08/29 09:23:56;;;;;;;;;;;;;;;15.17;82.97;97747.23;1709015;84;20403;-73
2021/08/29 09:26:23;;;;;;;;;;;;;;;15.35;83.01;97747.52;1709006;83;20156;-78
2021/08/29 09:28:49;;;;;;;;;;;;;;;15.55;83.02;97748.84;1709142;83;20144;-78
2021/08/29 09:31:17;;;;;;;;;;;;;;;15.72;81.79;97742.11;1709172;83;21711;-78
2021/08/29 09:33:43;;;;;;;;;;;;;;;15.75;80.75;97752.37;1708964;83;20184;-74
2021/08/29 09:36:10;;;;;;;;;;;;;;;15.87;80.35;97746.84;1699209;84;20156;-74
2021/08/29 09:38:38;;;;;;;;;;;;;;;15.87;78.94;97748.20;1709027;83;20420;-74
2021/08/29 09:41:07;;;;;;;;;;;;;;;16.01;78.79;97747.50;1708258;83;20088;-78
2021/08/29 09:43:40;;;;;;;;;;;;;;;16.17;78.49;97742.36;1699287;84;21145;-78
2021/08/29 09:46:06;;;;;;;;;;;;;;;16.27;76.45;97745.55;1708691;83;20131;-78
2021/08/29 09:48:32;;;;;;;;;;;;;;;16.35;77.71;97740.64;1709253;83;20156;-78
2021/08/29 09:50:58;;;;;;;;;;;;;;;16.50;78.49;97746.73;1708895;83;20162;-73
2021/08/29 09:53:24;;;;;;;;;;;;;;;16.82;78.58;97744.81;1699042;84;20205;-74
2021/08/29 09:55:50;;;;;;;;;;;;;;;16.99;77.49;97740.41;1709007;83;21897;-74
2021/08/29 09:58:31;;;;;;;;;;;;;;;16.99;74.92;97741.22;1709031;83;20750;-74
2021/08/29 10:01:16;;;;;;;;;;;;;;;16.87;74.52;97733.70;1708846;83;20136;-74
2021/08/29 10:03:46;;;;;;;;;;;;;;;16.94;75.40;97727.73;1709034;84;20133;-75
2021/08/29 10:06:14;;;;;;;;;;;;;;;17.16;75.71;97731.56;1709125;84;20358;-79
2021/08/29 10:08:41;;;;;;;;;;;;;;;17.12;75.03;97727.09;1709029;83;21751;-74
2021/08/29 10:11:07;;;;;;;;;;;;;;;17.24;75.16;97724.44;1708755;83;20137;-74
2021/08/29 10:13:33;;;;;;;;;;;;;;;17.40;76.57;97726.05;1709229;83;20144;-79
2021/08/29 10:15:59;;;;;;;;;;;;;;;17.39;73.87;97721.71;1708946;83;20132;-79
2021/08/29 10:18:25;;;;;;;;;;;;;;;17.34;73.87;97712.30;1709194;83;20202;-78
2021/08/29 10:20:51;;;;;;;;;;;;;;;17.38;74.67;97722.84;1708963;83;21891;-75
2021/08/29 10:23:17;;;;;;;;;;;;;;;17.11;72.79;97722.19;1709108;83;20170;-79
2021/08/29 10:25:43;;;;;;;;;;;;;;;17.29;74.60;97717.98;1708940;82;20147;-79
2021/08/29 10:28:12;;;;;;;;;;;;;;;17.34;74.26;97713.11;1709030;84;20462;-74
2021/08/29 10:30:39;;;;;;;;;;;;;;;17.67;73.95;97713.79;1708971;83;20408;-75
2021/08/29 10:33:05;;;;;;;;;;;;;;;17.73;72.82;97720.15;1709171;83;21271;-75
2021/08/29 10:35:32;;;;;;;;;;;;;;;18.05;72.75;97712.33;1709003;83;20170;-78
2021/08/29 10:37:57;;;;;;;;;;;;;;;18.16;70.75;97703.92;1709209;83;20135;-78
2021/08/29 10:40:23;;;;;;;;;;;;;;;18.38;70.67;97706.06;1708984;83;20202;-78
2021/08/29 10:42:49;;;;;;;;;;;;;;;18.51;67.15;97704.38;1708998;83;20218;-78
2021/08/29 10:45:15;;;;;;;;;;;;;;;18.81;70.94;97694.08;1709227;83;23159;-74
2021/08/29 10:47:43;;;;;;;;;;;;;;;18.58;69.22;97696.97;1709363;83;20197;-79
2021/08/29 10:50:11;;;;;;;;;;;;;;;18.43;67.81;97693.49;1709055;84;20160;-74
2021/08/29 10:52:38;;;;;;;;;;;;;;;18.63;66.27;97692.64;1699347;84;20440;-78
2021/08/29 10:55:09;;;;;;;;;;;;;;;18.15;66.43;97691.34;1709012;84;20179;-75
2021/08/29 10:57:36;;;;;;;;;;;;;;;18.68;65.74;97688.32;1699262;84;21817;-75
2021/08/29 11:00:11;;;;;;;;;;;;;;;19.08;67.79;97680.25;1708920;83;20136;-78
2021/08/29 11:02:38;;;;;;;;;;;;;;;19.08;68.29;97681.63;1709154;83;20139;-78
2021/08/29 11:05:06;;;;;;;;;;;;;;;19.04;67.69;97685.38;1709067;84;20132;-75
2021/08/29 11:07:44;;;;;;;;;;;;;;;19.02;67.62;97678.86;1709386;83;20164;-78
2021/08/29 11:10:11;;;;;;;;;;;;;;;18.87;67.25;97678.97;1708937;83;21166;-79
2021/08/29 11:12:37;;;;;;;;;;;;;;;18.59;65.69;97669.19;1709332;83;20395;-78
2021/08/29 11:15:05;;;;;;;;;;;;;;;18.41;66.41;97670.52;1708969;83;20207;-74
2021/08/29 11:17:32;;;;;;;;;;;;;;;18.35;67.48;97675.18;1709258;83;20436;-79
2021/08/29 11:20:05;;;;;;;;;;;;;;;18.13;67.93;97674.44;1709114;84;20164;-74
2021/08/29 11:22:42;;;;;;;;;;;;;;;18.02;68.65;97673.23;1709336;83;21253;-74
2021/08/29 11:25:16;;;;;;;;;;;;;;;18.13;69.96;97670.90;1705394;82;20148;-79
2021/08/29 11:27:44;;;;;;;;;;;;;;;18.46;69.67;97671.69;1713939;84;20156;-78
2021/08/29 11:30:14;;;;;;;;;;;;;;;18.50;68.68;97669.05;1713506;84;20168;-78
2021/08/29 11:32:54;;;;;;;;;;;;;;;18.31;67.16;97664.90;1714363;83;20139;-75
2021/08/29 11:35:24;;;;;;;;;;;;;;;18.57;67.57;97675.59;1689757;84;21134;-74
2021/08/29 11:38:06;;;;;;;;;;;;;;;18.51;67.46;97670.66;1713847;83;20188;-74
2021/08/29 11:40:50;;;;;;;;;;;;;;;18.48;67.93;97673.52;1713781;84;20131;-78
2021/08/29 11:43:34;;;;;;;;;;;;;;;18.21;68.72;97680.98;1713920;83;20125;-78
2021/08/29 11:46:12;;;;;;;;;;;;;;;17.67;65.57;97669.95;1713608;84;20158;-74
2021/08/29 11:48:50;;;;;;;;;;;;;;;17.82;66.13;97672.12;1713832;84;21157;-79
2021/08/29 11:51:25;;;;;;;;;;;;;;;17.87;67.16;97671.13;1711079;84;20128;-78
2021/08/29 11:53:51;;;;;;;;;;;;;;;17.80;66.02;97669.49;1704131;83;20144;-74
2021/08/29 11:56:19;;;;;;;;;;;;;;;17.91;66.28;97663.83;1713582;83;20150;-74
2021/08/29 11:58:46;;;;;;;;;;;;;;;17.99;65.26;97665.12;1713651;84;20144;-78
2021/08/29 12:01:12;;;;;;;;;;;;;;;18.06;65.62;97665.95;1713498;84;21134;-78
2021/08/29 12:03:38;;;;;;;;;;;;;;;18.09;65.49;97674.86;1713809;84;20193;-78
2021/08/29 12:06:25;;;;;;;;;;;;;;;18.21;64.42;97668.64;1713608;83;20140;-74
2021/08/29 12:09:07;;;;;;;;;;;;;;;18.19;62.88;97670.33;1713755;83;20149;-78
2021/08/29 12:11:35;;;;;;;;;;;;;;;18.28;63.34;97671.04;1712643;83;20420;-74
2021/08/29 12:14:18;;;;;;;;;;;;;;;18.41;63.05;97675.20;1713679;84;21058;-78
2021/08/29 12:16:46;;;;;;;;;;;;;;;18.56;63.26;97668.50;1713605;83;20159;-75
2021/08/29 12:19:12;;;;;;;;;;;;;;;18.82;63.78;97668.23;1712574;83;20144;-78
2021/08/29 12:21:40;;;;;;;;;;;;;;;19.00;63.21;97663.31;1703366;84;20166;-78
2021/08/29 12:24:06;;;;;;;;;;;;;;;18.69;62.75;97655.63;1713678;84;20108;-77
2021/08/29 12:26:36;;;;;;;;;;;;;;;18.73;64.11;97659.30;1711414;83;21827;-78
2021/08/29 12:29:01;;;;;;;;;;;;;;;18.60;62.18;97654.89;1708920;83;20396;-75
2021/08/29 12:31:27;;;;;;;;;;;;;;;18.84;63.92;97653.58;1709002;83;20140;-78
2021/08/29 12:33:53;;;;;;;;;;;;;;;18.67;63.26;97655.73;1709246;83;20179;-75
2021/08/29 12:36:19;;;;;;;;;;;;;;;18.82;62.78;97654.50;1709074;83;20734;-79
2021/08/29 12:38:49;;;;;;;;;;;;;;;18.90;62.91;97652.00;1709051;83;21205;-74
2021/08/29 12:41:15;;;;;;;;;;;;;;;19.33;62.14;97641.78;1708631;83;20124;-74
2021/08/29 12:43:42;;;;;;;;;;;;;;;18.80;60.95;97654.05;1699011;84;20140;-75
2021/08/29 12:46:08;;;;;;;;;;;;;;;18.82;60.91;97650.95;1708997;83;20160;-79
2021/08/29 12:48:34;;;;;;;;;;;;;;;19.16;61.94;97649.70;1709332;84;20190;-75
2021/08/29 12:51:03;;;;;;;;;;;;;;;19.35;60.70;97649.89;1709089;83;20951;-75
2021/08/29 12:53:29;;;;;;;;;;;;;;;18.84;60.06;97649.47;1709234;83;20124;-75
2021/08/29 12:55:56;;;;;;;;;;;;;;;18.91;60.56;97648.10;1709140;84;20167;-74
2021/08/29 12:58:26;;;;;;;;;;;;;;;18.60;61.04;97642.55;1698910;84;20258;-74
2021/08/29 13:00:59;;;;;;;;;;;;;;;18.55;58.87;97642.21;1709001;84;20136;-74
2021/08/29 13:03:26;;;;;;;;;;;;;;;18.75;59.21;97647.97;1709109;83;20996;-74
2021/08/29 13:05:53;;;;;;;;;;;;;;;18.79;59.96;97644.77;1709007;83;20141;-78
2021/08/29 13:08:18;;;;;;;;;;;;;;;18.74;57.70;97643.63;1709170;83;20128;-78
2021/08/29 13:11:03;;;;;;;;;;;;;;;19.06;57.68;97635.86;1698957;84;20150;-78
2021/08/29 13:13:35;;;;;;;;;;;;;;;18.88;60.03;97640.79;1709110;84;20156;-78
2021/08/29 13:16:01;;;;;;;;;;;;;;;18.44;57.99;97635.55;1708996;83;21184;-75
2021/08/29 13:18:27;;;;;;;;;;;;;;;18.71;59.30;97634.12;1709150;83;20742;-75
2021/08/29 13:20:53;;;;;;;;;;;;;;;18.84;58.61;97642.60;1709135;83;20214;-78
2021/08/29 13:23:30;;;;;;;;;;;;;;;18.61;59.30;97641.40;1709078;84;20175;-75
2021/08/29 13:25:57;;;;;;;;;;;;;;;18.82;57.99;97635.29;1708894;83;20144;-74
2021/08/29 13:28:23;;;;;;;;;;;;;;;18.66;59.62;97632.98;1709214;83;21070;-78
2021/08/29 13:31:00;;;;;;;;;;;;;;;18.58;59.88;97637.41;1708983;83;20695;-78
2021/08/29 13:33:26;;;;;;;;;;;;;;;18.74;59.24;97638.94;1709139;83;20419;-79
2021/08/29 13:35:52;;;;;;;;;;;;;;;18.91;59.38;97635.17;1709021;84;20190;-79
2021/08/29 13:38:18;;;;;;;;;;;;;;;18.69;57.95;97629.55;1699034;84;20151;-79
2021/08/29 13:40:47;;;;;;;;;;;;;;;18.76;57.99;97631.73;1699055;84;21164;-78
2021/08/29 13:43:13;;;;;;;;;;;;;;;18.85;58.42;97627.73;1708579;83;20400;-78
2021/08/29 13:45:39;;;;;;;;;;;;;;;18.80;57.70;97625.23;1709051;83;20175;-78
2021/08/29 13:48:07;;;;;;;;;;;;;;;18.96;58.70;97631.38;1709159;83;20124;-78
2021/08/29 13:50:33;;;;;;;;;;;;;;;19.20;58.92;97624.50;1709165;84;20144;-75
2021/08/29 13:53:05;;;;;;;;;;;;;;;19.30;58.63;97629.52;1709187;84;21072;-75
2021/08/29 13:55:34;;;;;;;;;;;;;;;19.68;57.90;97623.63;1708839;84;37602;-79
2021/08/29 13:58:00;;;;;;;;;;;;;;;19.26;57.17;97625.08;1709007;84;20163;-75
2021/08/29 14:00:26;;;;;;;;;;;;;;;18.86;55.91;97627.95;1709054;84;20166;-78
2021/08/29 14:02:51;;;;;;;;;;;;;;;18.95;56.44;97629.22;1709213;83;20695;-79
2021/08/29 14:05:17;;;;;;;;;;;;;;;19.10;56.24;97627.73;1709124;83;21315;-79
2021/08/29 14:07:46;;;;;;;;;;;;;;;18.95;56.92;97627.05;1709208;84;20300;-75
2021/08/29 14:10:12;;;;;;;;;;;;;;;19.10;57.19;97620.86;1708968;83;20136;-75
2021/08/29 14:12:38;;;;;;;;;;;;;;;19.13;58.09;97618.21;1709225;84;20196;-79
2021/08/29 14:15:05;;;;;;;;;;;;;;;19.03;57.92;97624.75;1708928;83;20148;-74
2021/08/29 14:17:31;;;;;;;;;;;;;;;19.03;57.53;97625.55;1709226;83;21280;-78
2021/08/29 14:19:57;;;;;;;;;;;;;;;19.14;58.21;97628.63;1708774;83;20174;-75
2021/08/29 14:22:23;;;;;;;;;;;;;;;19.05;57.62;97627.95;1709297;83;20299;-79
2021/08/29 14:24:49;;;;;;;;;;;;;;;19.13;58.32;97632.52;1708907;84;20194;-79
2021/08/29 14:27:14;;;;;;;;;;;;;;;18.90;57.98;97633.58;1708939;82;20154;-76
2021/08/29 14:29:40;;;;;;;;;;;;;;;19.02;58.79;97638.25;1708916;84;21051;-75
2021/08/29 14:32:07;;;;;;;;;;;;;;;18.98;58.87;97642.84;1708944;83;20190;-78
2021/08/29 14:34:33;;;;;;;;;;;;;;;18.89;59.72;97638.84;1709038;84;20153;-74
2021/08/29 14:36:59;;;;;;;;;;;;;;;18.83;61.16;97642.95;1709035;83;20140;-78
2021/08/29 14:39:25;;;;;;;;;;;;;;;18.68;58.95;97640.88;1709038;83;20179;-78
2021/08/29 14:41:51;;;;;;;;;;;;;;;18.76;59.25;97642.71;1709019;83;20935;-75
2021/08/29 14:44:16;;;;;;;;;;;;;;;18.67;59.48;97639.28;1708878;83;20194;-74
2021/08/29 14:46:42;;;;;;;;;;;;;;;18.65;60.00;97640.16;1708968;83;20193;-78
2021/08/29 14:49:08;;;;;;;;;;;;;;;18.68;60.28;97635.39;1709076;83;20634;-74
2021/08/29 14:51:34;;;;;;;;;;;;;;;18.51;60.46;97630.30;1709084;83;20218;-75
2021/08/29 14:53:59;;;;;;;;;;;;;;;18.55;60.55;97636.73;1709099;84;21168;-74
2021/08/29 14:56:25;;;;;;;;;;;;;;;18.43;61.87;97631.77;1709000;83;20729;-79
2021/08/29 14:58:51;;;;;;;;;;;;;;;18.51;61.03;97625.39;1709071;83;20194;-78
2021/08/29 15:01:17;;;;;;;;;;;;;;;18.41;61.39;97630.75;1708960;83;20214;-78
2021/08/29 15:03:42;;;;;;;;;;;;;;;18.22;61.73;97627.17;1709146;83;20163;-74
2021/08/29 15:06:08;;;;;;;;;;;;;;;18.23;61.63;97623.28;1709087;83;21065;-74
2021/08/29 15:08:34;;;;;;;;;;;;;;;18.13;61.70;97625.66;1709090;83;20190;-78
2021/08/29 15:11:06;;;;;;;;;;;;;;;18.03;62.23;97628.23;1708867;83;20431;-78
2021/08/29 15:13:31;;;;;;;;;;;;;;;17.94;62.60;97626.14;1709126;83;20679;-78
2021/08/29 15:15:57;;;;;;;;;;;;;;;17.71;62.18;97622.98;1709053;84;20206;-78